Time;durP1;ratioP1;P1;durP2;ratioP2;P2;SDS_P1;SDS_P2;PMS_P1;PMS_P2;Temp;Humidity;BMP_temperature;BMP_pressure;BME280_temperature;BME280_humidity;BME280_pressure;Samples;Min_cycle;Max_cycle;Signal;HPM_P1;HPM_P2
2023/01/30 00:01:54;;;;;;;0.25;0.25;;;;;;;0.89;55.12;100504.09;4383704;32;33895;-86
2023/01/30 00:04:22;;;;;;;0.20;0.20;;;;;;;0.83;55.23;100512.72;4383970;32;34009;-86
2023/01/30 00:06:49;;;;;;;0.28;0.28;;;;;;;0.84;55.32;100511.00;4380460;32;32640;-86
2023/01/30 00:09:17;;;;;;;1.35;1.30;;;;;;;0.84;55.21;100508.41;4369214;32;33830;-86
2023/01/30 00:11:45;;;;;;;1.12;1.12;;;;;;;0.76;54.99;100509.22;4362645;32;33613;-85
2023/01/30 00:14:13;;;;;;;1.70;1.60;;;;;;;0.87;54.88;100505.84;4363188;32;33739;-87
2023/01/30 00:16:41;;;;;;;0.30;0.30;;;;;;;0.88;54.53;100492.84;4363113;32;32343;-86
2023/01/30 00:19:09;;;;;;;0.62;0.62;;;;;;;0.88;54.58;100489.38;4375326;32;32729;-86
2023/01/30 00:21:37;;;;;;;0.00;0.00;;;;;;;0.82;54.70;100495.41;4362908;32;33923;-86
2023/01/30 00:24:05;;;;;;;1.25;1.25;;;;;;;0.72;55.06;100498.78;4361289;32;33592;-86
2023/01/30 00:26:33;;;;;;;1.25;1.25;;;;;;;0.44;56.23;100500.31;4362061;32;31943;-85
2023/01/30 00:29:01;;;;;;;0.22;0.22;;;;;;;0.48;56.42;100494.28;4348953;32;32976;-86
2023/01/30 00:31:30;;;;;;;0.28;0.28;;;;;;;0.54;56.20;100493.47;4363356;32;33990;-86
2023/01/30 00:33:57;;;;;;;0.35;0.35;;;;;;;0.42;56.38;100497.66;4363197;32;34562;-85
2023/01/30 00:36:25;;;;;;;1.08;0.62;;;;;;;0.43;56.17;100499.44;4363005;32;34091;-85
2023/01/30 00:38:55;;;;;;;0.55;0.55;;;;;;;0.55;55.79;100493.47;4363142;32;33644;-85
2023/01/30 00:47:03;;;;;;;0.57;0.57;;;;;;;0.43;55.87;100491.66;4375069;32;34011;-86
2023/01/30 00:47:07;;;;;;;0.95;0.90;;;;;;;0.40;56.00;100491.59;4362501;32;33349;-85
2023/01/30 00:49:36;;;;;;;0.15;0.15;;;;;;;0.43;56.01;100489.03;4349623;32;33651;-85
2023/01/30 00:52:04;;;;;;;0.00;0.00;;;;;;;0.22;56.75;100488.84;4350302;32;32826;-86
2023/01/30 00:54:33;;;;;;;0.65;0.65;;;;;;;0.18;56.75;100487.94;4362167;32;34928;-85
2023/01/30 00:57:00;;;;;;;;;;;;;;;0.21;56.80;100479.31;4361570;32;32736;-85
2023/01/30 00:59:28;;;;;;;;;;;;;;;0.16;57.00;100479.28;4361255;32;33368;-85
2023/01/30 01:01:55;;;;;;;;;;;;;;;0.12;57.25;100477.50;4362915;32;33135;-85
2023/01/30 01:04:22;;;;;;;;;;;;;;;0.06;57.39;100477.44;4369496;32;33579;-83
2023/01/30 01:06:50;;;;;;;;;;;;;;;0.11;57.49;100469.72;4349820;32;32556;-84
2023/01/30 01:09:18;;;;;;;;;;;;;;;0.24;57.42;100467.22;4350712;32;34060;-84
2023/01/30 01:11:46;;;;;;;;;;;;;;;0.23;57.48;100467.19;4374599;32;34184;-85
2023/01/30 01:14:13;;;;;;;;;;;;;;;0.32;57.48;100463.81;4362375;32;34205;-86
2023/01/30 01:16:41;;;;;;;;;;;;;;;0.41;57.01;100450.91;4361862;32;32329;-86
2023/01/30 01:19:08;;;;;;;;;;;;;;;0.50;56.41;100450.97;4362715;32;32799;-86
2023/01/30 01:21:35;;;;;;;;;;;;;;;0.51;56.24;100450.13;4375115;32;34212;-86
2023/01/30 01:24:04;;;;;;;;;;;;;;;0.61;55.80;100456.25;4362221;32;33199;-86
2023/01/30 01:26:32;;;;;;;;;;;;;;;0.50;56.03;100448.38;4388112;32;33944;-86
2023/01/30 01:29:00;;;;;;;;;;;;;;;0.51;56.01;100444.91;4376808;32;33848;-86
2023/01/30 01:31:28;;;;;;;;;;;;;;;0.45;56.09;100443.16;4376590;32;33118;-86
2023/01/30 01:33:56;;;;;;;;;;;;;;;0.40;56.19;100441.38;4389655;32;34488;-86
2023/01/30 01:36:24;;;;;;;;;;;;;;;0.41;56.14;100438.78;4389048;32;33969;-86
2023/01/30 01:39:12;;;;;;;;;;;;;;;0.48;55.84;100450.97;4377305;32;34125;-86
2023/01/30 01:41:39;;;;;;;;;;;;;;;0.44;55.63;100443.16;4370932;32;34463;-86
2023/01/30 01:44:08;;;;;;;;;;;;;;;0.42;55.68;100429.25;4364465;32;33221;-86
2023/01/30 01:46:35;;;;;;;;;;;;;;;0.14;56.42;100429.06;4376402;32;31895;-85
2023/01/30 01:49:32;;;;;;;;;;;;;;;0.02;57.18;100433.25;4382094;32;34768;-85
2023/01/30 01:52:02;;;;;;;;;;;;;;;0.16;56.65;100426.47;4370691;32;36525;-86
2023/01/30 01:54:33;;;;;;;;;;;;;;;0.18;56.17;100417.81;4362817;32;34508;-86
2023/01/30 01:57:02;;;;;;;;;;;;;;;0.13;56.44;100416.03;4374367;32;32880;-85
2023/01/30 01:59:31;;;;;;;;;;;;;;;0.11;56.52;100410.84;4363590;32;34394;-84
2023/01/30 02:02:00;;;;;;;;;;;;;;;0.14;56.38;100405.69;4376638;32;33938;-85
2023/01/30 02:07:14;;;;;;;;;;;;;;;0.10;56.27;100400.47;4364254;32;32344;-85
2023/01/30 02:09:42;;;;;;;;;;;;;;;-0.13;56.73;100400.25;4350685;32;33804;-86
2023/01/30 02:12:10;;;;;;;;;;;;;;;0.09;56.10;100388.31;4356267;32;33827;-86
2023/01/30 02:14:37;;;;;;;;;;;;;;;0.02;56.34;100377.00;4377014;32;34212;-86
2023/01/30 02:17:05;;;;;;;;;;;;;;;0.06;56.21;100383.97;4367510;32;34227;-86
2023/01/30 02:19:42;;;;;;;;;;;;;;;0.02;56.26;100383.94;4376485;32;33712;-85
2023/01/30 02:22:09;;;;;;;;;;;;;;;-0.14;56.82;100382.91;4363734;32;33609;-84
2023/01/30 02:24:49;;;;;;;;;;;;;;;-0.12;56.70;100374.31;4376232;32;34083;-84
2023/01/30 02:27:21;;;;;;;;;;;;;;;-0.14;56.92;100365.66;4363888;32;32736;-84
2023/01/30 02:29:55;;;;;;;;;;;;;;;-0.01;56.56;100362.25;4351338;32;33214;-86
2023/01/30 02:32:22;;;;;;;;;;;;;;;-0.08;56.71;100362.22;4357914;32;32923;-86
2023/01/30 02:35:10;;;;;;;;;;;;;;;-0.02;56.66;100359.66;4376739;32;34274;-86
2023/01/30 02:37:43;;;;;;;;;;;;;;;0.06;56.60;100354.56;4368572;32;33299;-86
2023/01/30 02:40:15;;;;;;;;;;;;;;;-0.03;56.57;100361.41;4363438;32;33298;-86
2023/01/30 02:42:49;;;;;;;;;;;;;;;-0.17;57.00;100350.03;4363694;32;33125;-86
2023/01/30 02:45:21;;;;;;;;;;;;;;;-0.20;57.22;100343.94;4374041;32;33650;-86
2023/01/30 02:48:11;;;;;;;;;;;;;;;-0.33;57.40;100336.06;4370472;32;34174;-85
2023/01/30 02:50:42;;;;;;;;;;;;;;;-0.18;57.39;100326.66;4357557;32;33294;-86
2023/01/30 02:53:09;;;;;;;;;;;;;;;-0.06;57.05;100326.75;4374982;32;34662;-86
2023/01/30 02:55:39;;;;;;;;;;;;;;;-0.12;57.18;100321.53;4363674;32;34063;-86
2023/01/30 02:58:07;;;;;;;;;;;;;;;-0.09;57.17;100322.41;4363864;32;32300;-86
2023/01/30 03:00:47;;;;;;;;;;;;;;;-0.18;57.13;100305.91;4375059;32;34115;-87
2023/01/30 03:03:21;;;;;;;;;;;;;;;-0.26;57.17;100311.87;4374593;32;33741;-86
2023/01/30 03:05:52;;;;;;;;;;;;;;;-0.15;57.07;100308.50;4362072;32;33154;-87
2023/01/30 03:08:35;;;;;;;;;;;;;;;-0.17;57.05;100302.44;4376479;32;33396;-86
2023/01/30 03:11:06;;;;;;;;;;;;;;;-0.31;57.64;100304.94;4389049;32;34466;-86
2023/01/30 03:13:46;;;;;;;;;;;;;;;-0.51;58.04;100307.34;4397083;32;34922;-86
2023/01/30 03:16:16;;;;;;;;;;;;;;;-0.63;58.43;100312.41;4369620;32;33608;-86
2023/01/30 03:18:44;;;;;;;;;;;;;;;-0.26;57.62;100301.50;4383847;32;32193;-86
2023/01/30 03:21:14;;;;;;;1.60;1.50;;;;;;;-0.24;57.60;100306.69;4388615;32;34433;-86
2023/01/30 03:23:46;;;;;;;1.37;1.27;;;;;;;-0.21;57.24;100305.88;4360950;32;34629;-86
2023/01/30 03:26:18;;;;;;;3.05;2.87;;;;;;;-0.44;57.86;100303.94;4393657;32;33781;-87
2023/01/30 03:28:48;;;;;;;0.37;0.37;;;;;;;-0.47;58.11;100303.06;4377213;32;33651;-87
2023/01/30 03:31:16;;;;;;;1.10;1.10;;;;;;;-0.33;57.79;100304.94;4364112;32;31946;-87
2023/01/30 03:33:44;;;;;;;2.70;2.05;;;;;;;-0.56;58.17;100306.44;4358509;32;33537;-87
2023/01/30 03:36:12;;;;;;;0.62;0.62;;;;;;;-0.31;57.89;100305.78;4395147;32;34736;-87
2023/01/30 03:38:40;;;;;;;0.85;0.65;;;;;;;-0.37;57.91;100302.28;4394357;32;34238;-87
2023/01/30 03:41:08;;;;;;;1.10;1.05;;;;;;;-0.42;58.28;100293.59;4376086;32;33370;-87
2023/01/30 03:43:35;;;;;;;1.92;1.83;;;;;;;-0.45;57.79;100283.19;4382388;32;33291;-87
2023/01/30 03:46:04;;;;;;;0.55;0.55;;;;;;;-0.57;58.06;100284.81;4384679;32;33874;-87
2023/01/30 03:48:32;;;;;;;0.82;0.82;;;;;;;-0.44;57.56;100287.50;4356573;32;32059;-87
2023/01/30 03:50:59;;;;;;;0.43;0.43;;;;;;;-0.65;58.54;100283.00;4356944;32;33157;-88
2023/01/30 03:53:28;;;;;;;1.00;0.75;;;;;;;-0.54;58.19;100281.37;4363614;32;33175;-87
2023/01/30 03:55:56;;;;;;;0.28;0.28;;;;;;;-0.76;59.10;100285.47;4382318;32;33534;-87
2023/01/30 03:58:24;;;;;;;1.15;1.10;;;;;;;-0.82;59.31;100281.09;4395120;32;33520;-87
2023/01/30 04:00:56;;;;;;;0.73;0.73;;;;;;;-0.94;59.46;100282.72;4370745;32;33236;-87
2023/01/30 04:03:24;;;;;;;0.43;0.43;;;;;;;-0.96;59.34;100277.50;4356815;32;33889;-88
2023/01/30 04:05:54;;;;;;;0.55;0.55;;;;;;;-0.94;58.95;100272.38;4371428;32;33981;-86
2023/01/30 04:08:22;;;;;;;0.52;0.52;;;;;;;-0.93;58.98;100274.09;4364890;32;32564;-86
2023/01/30 04:10:50;;;;;;;0.57;0.57;;;;;;;-0.82;59.07;100268.16;4390093;32;34489;-86
2023/01/30 04:13:17;;;;;;;0.20;0.20;;;;;;;-0.61;57.99;100266.63;4344710;32;33139;-87
2023/01/30 04:15:45;;;;;;;0.20;0.20;;;;;;;-0.90;58.29;100256.84;4370460;32;32587;-87
2023/01/30 04:18:13;;;;;;;0.32;0.32;;;;;;;-0.82;58.01;100257.78;4359799;32;32483;-87
2023/01/30 04:20:41;;;;;;;2.53;2.33;;;;;;;-0.83;57.44;100256.03;4369683;32;33293;-87
2023/01/30 04:23:09;;;;;;;0.43;0.43;;;;;;;-0.68;57.34;100257.03;4351103;32;33392;-87
2023/01/30 04:25:38;;;;;;;0.00;0.00;;;;;;;-0.71;57.35;100264.78;4359879;32;34308;-87
2023/01/30 04:28:06;;;;;;;0.10;0.10;;;;;;;-0.74;57.35;100257.00;4344120;32;33429;-87
2023/01/30 04:30:34;;;;;;;0.28;0.28;;;;;;;-0.69;57.25;100260.50;4369525;32;32837;-88
2023/01/30 04:33:03;;;;;;;0.93;0.85;;;;;;;-0.79;57.28;100257.81;4353348;32;34393;-87
2023/01/30 04:35:31;;;;;;;0.80;0.75;;;;;;;-0.80;57.54;100253.50;4357323;32;33417;-85
2023/01/30 04:37:59;;;;;;;0.40;0.40;;;;;;;-0.92;58.00;100250.78;4380483;32;33578;-86
2023/01/30 04:40:27;;;;;;;0.30;0.30;;;;;;;-1.01;58.53;100253.25;4369201;32;33805;-86
2023/01/30 04:42:55;;;;;;;0.03;0.03;;;;;;;-0.99;57.98;100245.53;4368564;32;34307;-85
2023/01/30 04:45:23;;;;;;;0.88;0.75;;;;;;;-0.86;57.57;100232.66;4342767;32;33671;-85
2023/01/30 04:47:51;;;;;;;1.70;1.60;;;;;;;-0.79;57.16;100231.88;4382112;32;34251;-86
2023/01/30 04:50:19;;;;;;;0.10;0.10;;;;;;;-0.84;57.02;100225.78;4366101;32;33717;-86
2023/01/30 04:52:46;;;;;;;0.60;0.60;;;;;;;-0.89;57.44;100222.28;4381945;32;34053;-86
2023/01/30 04:55:15;;;;;;;0.37;0.37;;;;;;;-1.11;58.47;100226.38;4385741;32;35284;-86
2023/01/30 04:57:43;;;;;;;0.25;0.25;;;;;;;-0.90;57.96;100220.56;4369174;32;32212;-87
2023/01/30 05:00:11;;;;;;;1.50;1.45;;;;;;;-0.97;57.75;100229.12;4354743;32;34507;-86
2023/01/30 05:02:40;;;;;;;1.15;0.57;;;;;;;-1.07;58.05;100232.47;4363372;32;33323;-87
2023/01/30 05:05:08;;;;;;;0.00;0.00;;;;;;;-1.04;58.33;100227.34;4342972;32;33484;-88
2023/01/30 05:07:36;;;;;;;1.50;1.40;;;;;;;-0.96;58.06;100217.03;4357511;32;34397;-87
2023/01/30 05:10:04;;;;;;;1.87;1.77;;;;;;;-1.05;58.17;100220.37;4371502;32;33477;-88
2023/01/30 05:12:32;;;;;;;0.93;0.93;;;;;;;-0.99;57.66;100214.44;4356014;32;33466;-88
2023/01/30 05:15:00;;;;;;;0.55;0.55;;;;;;;-1.04;57.99;100219.56;4360093;32;33206;-87
2023/01/30 05:17:28;;;;;;;0.43;0.43;;;;;;;-1.01;57.77;100211.78;4345900;32;32508;-88
2023/01/30 05:19:55;;;;;;;0.20;0.20;;;;;;;-1.03;57.63;100218.69;4368815;32;33064;-89
2023/01/30 05:22:23;;;;;;;;;;;;;;;-1.07;57.98;100214.34;4377105;32;34025;-89
2023/01/30 05:24:51;;;;;;;;;;;;;;;-1.20;58.19;100221.09;4351601;32;33270;-88
2023/01/30 05:27:18;;;;;;;;;;;;;;;-1.00;57.97;100218.72;4365078;32;32362;-88
2023/01/30 05:29:46;;;;;;;;;;;;;;;-0.97;57.64;100210.97;4357217;32;33380;-88
2023/01/30 05:32:14;;;;;;;;;;;;;;;-0.89;57.23;100214.50;4371449;32;33067;-88
2023/01/30 05:34:41;;;;;;;;;;;;;;;-0.90;57.15;100211.88;4375447;32;34597;-88
2023/01/30 05:37:08;;;;;;;;;;;;;;;-0.83;56.58;100213.69;4363613;32;33542;-88
2023/01/30 05:39:36;;;;;;;;;;;;;;;-1.01;57.57;100201.44;4370997;32;32229;-89
2023/01/30 05:42:03;;;;;;;;;;;;;;;-1.04;57.40;100204.00;4352424;32;33178;-88
2023/01/30 05:44:31;;;;;;;;;;;;;;;-1.35;58.57;100201.09;4371328;32;33266;-88
2023/01/30 05:46:58;;;;;;;;;;;;;;;-1.37;58.53;100202.81;4369942;32;33809;-87
2023/01/30 05:49:26;;;;;;;;;;;;;;;-1.18;58.63;100203.00;4372876;32;34476;-88
2023/01/30 05:51:53;;;;;;;;;;;;;;;-1.12;58.13;100198.75;4369832;32;33590;-88
2023/01/30 05:54:21;;;;;;;;;;;;;;;-1.13;57.91;100201.31;4382108;32;33711;-86
2023/01/30 05:56:49;;;;;;;;;;;;;;;-1.01;57.43;100200.56;4370649;32;32501;-87
2023/01/30 05:59:17;;;;;;;;;;;;;;;-1.45;58.88;100208.75;4381944;32;33004;-90
2023/01/30 06:01:45;;;;;;;;;;;;;;;-1.35;58.57;100214.03;4359160;32;34246;-84
2023/01/30 06:04:12;;;;;;;;;;;;;;;-1.25;58.01;100206.37;4380581;32;34136;-84
2023/01/30 06:06:40;;;;;;;;;;;;;;;-1.35;58.30;100216.63;4361531;32;32622;-84
2023/01/30 06:09:08;;;;;;;;;;;;;;;-1.29;58.09;100214.09;4374199;32;34878;-84
2023/01/30 06:11:36;;;;;;;;;;;;;;;-1.25;58.03;100211.56;4356372;32;32820;-85
2023/01/30 06:14:03;;;;;;;;;;;;;;;-1.29;58.34;100211.50;4376345;32;34175;-86
2023/01/30 06:16:30;;;;;;;;;;;;;;;-1.36;58.50;100212.31;4361690;32;32393;-88
2023/01/30 06:18:58;;;;;;;;;;;;;;;-1.35;58.62;100211.44;4361782;32;33520;-88
2023/01/30 06:21:26;;;;;;;;;;;;;;;-1.24;58.08;100210.69;4366852;32;33057;-88
2023/01/30 06:23:53;;;;;;;;;;;;;;;-1.17;57.85;100200.41;4361266;32;33805;-88
2023/01/30 06:26:20;;;;;;;;;;;;;;;-1.17;57.88;100212.50;4361210;32;32411;-88
2023/01/30 06:28:48;;;;;;;;;;;;;;;-1.09;57.73;100208.28;4353226;32;32949;-88
2023/01/30 06:31:17;;;;;;;;;;;;;;;-1.09;57.45;100203.09;4373202;32;34104;-88
2023/01/30 06:33:44;;;;;;;;;;;;;;;-1.31;58.48;100207.19;4371424;32;33426;-89
2023/01/30 06:36:12;;;;;;;;;;;;;;;-0.91;57.54;100203.25;4357653;32;32313;-88
2023/01/30 06:38:39;;;;;;;;;;;;;;;-1.12;57.99;100203.06;4368384;32;34388;-88
2023/01/30 06:41:07;;;;;;;;;;;;;;;-1.18;58.79;100198.69;4364177;32;33201;-88
2023/01/30 06:43:34;;;;;;;;;;;;;;;-1.20;59.08;100197.78;4358030;32;33142;-89
2023/01/30 06:46:01;;;;;;;;;;;;;;;-1.31;59.52;100199.41;4363746;32;33042;-88
2023/01/30 06:48:29;;;;;;;;;;;;;;;-1.11;59.37;100184.06;4358773;32;33425;-88
2023/01/30 06:50:56;;;;;;;;;;;;;;;-1.25;60.17;100183.91;4376365;32;34145;-88
2023/01/30 06:53:29;;;;;;;;;;;;;;;-0.99;59.52;100175.53;4363918;32;32932;-88
2023/01/30 06:55:57;;;;;;;;;;;;;;;-0.63;58.87;100185.34;4373325;32;33295;-88
2023/01/30 06:58:25;;;;;;;1.85;1.75;;;;;;;-0.63;58.59;100178.41;4376806;32;33169;-88
2023/01/30 07:00:52;;;;;;;1.17;1.17;;;;;;;-0.84;59.79;100191.22;4364320;32;33193;-89
2023/01/30 07:03:20;;;;;;;0.85;0.75;;;;;;;-0.83;60.12;100186.03;4363239;32;33875;-88
2023/01/30 07:05:48;;;;;;;1.45;1.45;;;;;;;-0.24;58.74;100178.69;4375380;32;31965;-88
2023/01/30 07:08:16;;;;;;;1.45;1.35;;;;;;;-0.43;59.25;100178.56;4375637;32;34393;-88
2023/01/30 07:10:44;;;;;;;1.27;1.27;;;;;;;-0.50;60.48;100178.53;4385151;32;33188;-88
2023/01/30 07:13:11;;;;;;;0.43;0.43;;;;;;;-0.20;60.13;100170.06;4373522;32;33522;-88
2023/01/30 07:15:39;;;;;;;3.03;2.35;;;;;;;0.29;58.37;100172.91;4338762;32;32244;-88
2023/01/30 07:18:07;;;;;;;4.03;3.30;;;;;;;0.33;58.55;100174.62;4359730;32;32037;-88
2023/01/30 07:20:35;;;;;;;1.10;1.00;;;;;;;0.37;58.39;100166.84;4362378;32;33227;-88
2023/01/30 07:23:02;;;;;;;1.05;0.98;;;;;;;0.40;58.65;100173.81;4361239;32;33982;-88
2023/01/30 07:25:30;;;;;;;0.30;0.30;;;;;;;0.25;59.51;100179.81;4359933;32;32484;-88
2023/01/30 07:28:00;;;;;;;2.12;2.03;;;;;;;0.24;59.70;100170.28;4360010;32;32125;-88
2023/01/30 07:30:30;;;;;;;0.88;0.88;;;;;;;0.31;59.31;100165.97;4373692;32;32723;-88
2023/01/30 07:32:59;;;;;;;2.60;2.47;;;;;;;0.08;60.20;100171.06;4372739;32;34081;-88
2023/01/30 07:35:29;;;;;;;0.00;0.00;;;;;;;0.36;59.69;100164.25;4374453;32;33777;-88
2023/01/30 07:37:57;;;;;;;3.15;1.80;;;;;;;0.33;60.20;100164.25;4347845;32;34017;-88
2023/01/30 07:40:25;;;;;;;1.77;1.48;;;;;;;0.60;59.58;100169.53;4359089;32;33288;-87
2023/01/30 07:43:05;;;;;;;0.40;0.40;;;;;;;0.60;59.66;100163.47;4364652;32;34322;-88
2023/01/30 07:45:44;;;;;;;2.12;1.35;;;;;;;0.97;58.23;100169.59;4351441;32;32429;-87
2023/01/30 07:48:13;;;;;;;2.65;2.50;;;;;;;1.02;58.13;100160.94;4361625;32;33339;-87
2023/01/30 07:50:42;;;;;;;3.53;3.20;;;;;;;0.96;58.63;100157.47;4361514;32;33303;-87
2023/01/30 07:53:13;;;;;;;0.85;0.85;;;;;;;0.86;59.26;100150.53;4359495;32;34172;-88
2023/01/30 07:55:41;;;;;;;0.17;0.17;;;;;;;1.04;59.03;100150.53;4372469;32;33494;-87
2023/01/30 07:58:12;;;;;;;1.37;1.33;;;;;;;1.12;59.01;100153.13;4385065;32;35462;-88
2023/01/30 08:00:40;;;;;;;2.28;2.17;;;;;;;1.11;59.11;100151.41;4359066;32;32757;-89
2023/01/30 08:03:15;;;;;;;2.05;1.95;;;;;;;1.27;59.00;100146.19;4347300;32;34180;-87
2023/01/30 08:05:45;;;;;;;0.65;0.65;;;;;;;1.51;58.63;100132.28;4359237;32;32642;-88
2023/01/30 08:08:13;;;;;;;2.25;2.10;;;;;;;1.89;57.17;100128.72;4344794;32;228785;-88
2023/01/30 08:10:42;;;;;;;4.25;3.85;;;;;;;1.95;56.99;100125.25;4370270;32;33802;-87
2023/01/30 08:13:09;;;;;;;4.62;3.80;;;;;;;1.88;57.53;100116.56;4370102;32;33880;-87
2023/01/30 08:15:37;;;;;;;5.25;3.55;;;;;;;2.13;57.28;100112.13;4383593;32;33289;-87
2023/01/30 08:18:07;;;;;;;2.90;2.72;;;;;;;2.03;57.87;100100.88;4384225;32;32210;-87
2023/01/30 08:20:35;;;;;;;4.47;3.22;;;;;;;1.74;59.11;100082.78;4372079;32;33899;-87
2023/01/30 08:23:04;;;;;;;2.12;1.95;;;;;;;1.83;59.71;100075.81;4390151;32;33840;-87
2023/01/30 08:25:31;;;;;;;1.90;1.17;;;;;;;1.79;60.18;100068.00;4370492;32;33897;-87
2023/01/30 08:27:59;;;;;;;2.42;2.22;;;;;;;1.86;60.20;100070.59;4370602;32;34560;-87
2023/01/30 08:30:29;;;;;;;2.17;2.08;;;;;;;2.00;60.20;100063.59;4392673;32;34050;-87
2023/01/30 08:32:57;;;;;;;0.82;0.82;;;;;;;2.33;59.49;100066.88;4382494;32;34511;-87
2023/01/30 08:35:25;;;;;;;2.92;2.45;;;;;;;2.55;58.34;100069.31;4373419;32;32945;-87
2023/01/30 08:37:55;;;;;;;1.35;1.25;;;;;;;2.41;58.68;100071.16;4379262;32;32679;-87
2023/01/30 08:40:22;;;;;;;2.35;0.70;;;;;;;2.42;59.22;100069.41;4359255;32;33560;-87
2023/01/30 08:42:50;;;;;;;0.20;0.20;;;;;;;2.46;59.47;100065.91;4372114;32;34810;-87
2023/01/30 08:45:17;;;;;;;1.87;1.77;;;;;;;2.23;60.00;100056.53;4379260;32;34476;-87
2023/01/30 08:47:45;;;;;;;1.30;1.20;;;;;;;2.43;59.84;100058.13;4371743;32;32793;-87
2023/01/30 08:50:13;;;;;;;4.00;1.30;;;;;;;2.30;59.65;100058.22;4369656;32;34421;-87
2023/01/30 08:52:41;;;;;;;1.37;1.02;;;;;;;2.01;60.58;100073.12;4384115;32;34009;-87
2023/01/30 08:55:09;;;;;;;1.42;1.33;;;;;;;2.40;59.88;100058.16;4373609;32;32470;-87
2023/01/30 08:57:37;;;;;;;1.87;1.75;;;;;;;2.70;59.42;100060.53;4371475;32;35069;-87
2023/01/30 09:00:05;;;;;;;6.55;1.02;;;;;;;2.87;58.18;100056.94;4381225;32;33575;-87
2023/01/30 09:02:33;;;;;;;1.10;1.02;;;;;;;2.95;58.46;100053.41;4372258;32;33116;-87
2023/01/30 09:05:00;;;;;;;1.95;1.85;;;;;;;3.03;58.32;100055.91;4370900;32;32625;-87
2023/01/30 09:07:28;;;;;;;1.92;1.80;;;;;;;3.31;57.39;100057.37;4384110;32;34660;-87
2023/01/30 09:09:56;;;;;;;0.35;0.35;;;;;;;3.25;57.04;100048.75;4371191;32;33389;-87
2023/01/30 09:12:23;;;;;;;0.20;0.20;;;;;;;2.94;57.45;100051.63;4372399;32;34222;-87
2023/01/30 09:14:56;;;;;;;1.12;1.12;;;;;;;3.26;57.45;100047.88;4391920;32;34334;-87
2023/01/30 09:17:24;;;;;;;1.15;1.15;;;;;;;3.41;57.48;100046.84;4379777;32;32968;-86
2023/01/30 09:19:52;;;;;;;0.73;0.73;;;;;;;3.22;57.75;100035.72;4391998;32;33672;-86
2023/01/30 09:22:20;;;;;;;0.55;0.55;;;;;;;3.34;57.78;100033.87;4357754;32;33892;-87
2023/01/30 09:24:47;;;;;;;1.17;1.15;;;;;;;3.68;56.94;100037.84;4370850;32;32517;-87
2023/01/30 09:27:15;;;;;;;0.25;0.25;;;;;;;3.84;56.48;100040.25;4371805;32;35020;-87
2023/01/30 09:29:43;;;;;;;0.70;0.70;;;;;;;3.56;57.13;100025.78;4384124;32;33045;-86
2023/01/30 09:32:11;;;;;;;1.77;1.65;;;;;;;2.87;58.48;100017.81;4372193;32;34765;-86
2023/01/30 09:34:39;;;;;;;1.17;1.17;;;;;;;3.28;57.32;100020.91;4360227;32;32903;-86
2023/01/30 09:37:07;;;;;;;0.32;0.32;;;;;;;3.60;56.93;100023.13;4379999;32;33647;-86
2023/01/30 09:39:34;;;;;;;1.35;1.35;;;;;;;3.58;57.27;100013.59;4357509;32;33633;-86
2023/01/30 09:42:05;;;;;;;2.40;2.15;;;;;;;3.79;56.77;100018.53;4371225;32;34146;-87
2023/01/30 09:45:11;;;;;;;1.50;1.45;;;;;;;3.75;56.94;100011.66;4380308;32;33627;-87
2023/01/30 09:47:54;;;;;;;0.43;0.43;;;;;;;3.70;57.11;100013.44;4395372;32;34727;-87
2023/01/30 09:50:47;;;;;;;0.47;0.47;;;;;;;3.55;57.11;100009.25;4392322;32;33307;-86
2023/01/30 09:53:55;;;;;;;0.52;0.52;;;;;;;3.09;59.01;99998.47;4385521;32;32968;-86
2023/01/30 09:56:24;;;;;;;0.28;0.28;;;;;;;3.67;57.59;99987.38;4392978;32;32885;-87
2023/01/30 09:59:01;;;;;;;1.20;1.10;;;;;;;3.66;57.37;99990.00;4373074;32;33468;-87
2023/01/30 10:01:36;;;;;;;0.62;0.62;;;;;;;3.95;56.61;99982.66;4391684;32;33920;-87
2023/01/30 10:04:16;;;;;;;2.45;2.35;;;;;;;3.74;56.96;99967.25;4393220;32;34737;-86
2023/01/30 10:07:10;;;;;;;2.55;2.35;;;;;;;3.93;56.38;99970.47;4380604;32;33234;-87
2023/01/30 10:09:41;;;;;;;3.40;3.12;;;;;;;3.74;56.93;99968.13;4365831;32;32623;-87
2023/01/30 10:12:18;;;;;;;2.53;1.80;;;;;;;3.97;57.05;99956.50;4395589;32;34589;-86
2023/01/30 10:14:54;;;;;;;1.25;1.25;;;;;;;4.17;56.62;99957.06;4374018;32;33487;-86
2023/01/30 10:17:37;;;;;;;0.20;0.20;;;;;;;4.21;56.41;99953.50;4392822;32;33938;-86
2023/01/30 10:20:20;;;;;;;2.58;2.37;;;;;;;4.50;55.62;99944.34;4391914;32;34402;-86
2023/01/30 10:23:09;;;;;;;5.47;1.40;;;;;;;4.36;56.42;99932.34;4382786;32;34359;-86
2023/01/30 10:25:44;;;;;;;1.02;0.85;;;;;;;4.57;55.83;99930.28;4381943;32;34137;-86
2023/01/30 10:28:37;;;;;;;1.33;1.27;;;;;;;4.37;55.92;99931.47;4378911;32;33625;-86
2023/01/30 10:31:17;;;;;;;0.62;0.62;;;;;;;4.22;55.63;99929.09;4372861;32;33391;-87
2023/01/30 10:34:10;;;;;;;1.20;1.20;;;;;;;4.32;55.27;99915.00;4396571;32;32981;-86
2023/01/30 10:36:53;;;;;;;1.30;1.30;;;;;;;4.45;55.03;99912.19;4373264;32;34400;-86
2023/01/30 10:39:27;;;;;;;3.05;0.77;;;;;;;4.31;55.32;99902.81;4383465;32;32806;-86
2023/01/30 10:42:09;;;;;;;0.57;0.57;;;;;;;3.69;57.00;99903.78;4378506;32;32715;-86
2023/01/30 10:44:41;;;;;;;0.62;0.60;;;;;;;4.50;54.97;99884.19;4394368;32;34437;-86
2023/01/30 10:47:18;;;;;;;0.83;0.83;;;;;;;4.57;55.26;99883.22;4397703;32;34208;-85
2023/01/30 10:49:51;;;;;;;0.55;0.55;;;;;;;4.16;56.54;99879.53;4397096;32;33313;-86
2023/01/30 10:52:49;;;;;;;0.30;0.30;;;;;;;4.36;55.60;99869.59;4391282;32;32832;-86
2023/01/30 10:55:38;;;;;;;2.72;2.53;;;;;;;4.74;54.57;99860.22;4382758;32;32929;-86
2023/01/30 10:58:31;;;;;;;0.00;0.00;;;;;;;5.13;53.58;99842.00;4353643;32;32971;-85
2023/01/30 11:01:03;;;;;;;0.55;0.55;;;;;;;4.93;53.72;99839.78;4385195;32;33760;-86
2023/01/30 11:03:46;;;;;;;1.67;1.58;;;;;;;4.74;53.90;99839.28;4366273;32;32796;-86
2023/01/30 11:06:16;;;;;;;4.47;2.60;;;;;;;4.70;55.10;99828.91;4378318;32;33705;-86
2023/01/30 11:08:44;;;;;;;1.77;1.50;;;;;;;4.77;55.41;99828.75;4350130;32;34463;-86
2023/01/30 11:11:26;;;;;;;4.97;1.70;;;;;;;4.46;55.38;99823.25;4379230;32;33878;-86
2023/01/30 11:14:08;;;;;;;5.82;2.22;;;;;;;4.45;55.47;99815.44;4377181;32;32662;-86
2023/01/30 11:16:43;;;;;;;2.55;0.82;;;;;;;4.16;56.29;99808.97;4378367;32;33448;-86
2023/01/30 11:19:12;;;;;;;1.40;1.05;;;;;;;3.94;57.24;99808.50;4387827;32;33842;-86
2023/01/30 11:21:51;;;;;;;2.92;1.75;;;;;;;4.79;55.17;99800.81;4375213;32;33784;-86
2023/01/30 11:24:22;;;;;;;2.12;2.03;;;;;;;4.87;54.96;99790.19;4389534;32;33585;-87
2023/01/30 11:26:51;;;;;;;0.00;0.00;;;;;;;4.94;54.69;99778.72;4387905;32;33273;-86
2023/01/30 11:29:31;;;;;;;1.27;1.20;;;;;;;4.79;55.23;99771.19;4376250;32;32535;-86
2023/01/30 11:32:18;;;;;;;0.30;0.30;;;;;;;5.32;54.09;99763.94;4379723;32;32877;-86
2023/01/30 11:35:03;;;;;;;1.73;1.58;;;;;;;5.05;54.12;99765.41;4376460;32;34292;-85
2023/01/30 11:37:33;;;;;;;0.98;0.98;;;;;;;4.86;55.29;99764.94;4391521;32;33523;-86
2023/01/30 11:40:29;;;;;;;0.60;0.60;;;;;;;4.99;54.02;99760.31;4376136;32;33094;-86
2023/01/30 11:43:02;;;;;;;2.45;1.25;;;;;;;5.10;54.08;99753.94;4350003;32;33482;-86
2023/01/30 11:45:35;;;;;;;1.23;1.23;;;;;;;5.14;54.84;99749.50;4376125;32;33595;-86
2023/01/30 11:48:09;;;;;;;1.73;1.62;;;;;;;5.09;55.10;99744.38;4383440;32;32967;-86
2023/01/30 11:51:03;;;;;;;0.85;0.85;;;;;;;5.29;55.09;99733.44;4376404;32;34625;-86
2023/01/30 11:53:50;;;;;;;2.03;1.87;;;;;;;5.16;55.57;99724.16;4365394;32;32768;-85
2023/01/30 11:56:32;;;;;;;0.22;0.22;;;;;;;5.34;54.98;99715.88;4376090;32;34431;-86
2023/01/30 11:59:06;;;;;;;0.98;0.95;;;;;;;5.54;54.40;99722.38;4375725;32;33846;-86
2023/01/30 12:01:35;;;;;;;0.88;0.65;;;;;;;5.21;54.84;99718.81;4379823;32;33395;-86
2023/01/30 12:04:08;;;;;;;11.98;1.10;;;;;;;5.44;54.52;99715.66;4398137;32;32985;-86
2023/01/30 12:06:38;;;;;;;0.90;0.90;;;;;;;5.43;54.53;99719.16;4377002;32;33984;-86
2023/01/30 12:09:30;;;;;;;0.68;0.65;;;;;;;5.42;54.34;99717.47;4379114;32;34120;-85
2023/01/30 12:11:58;;;;;;;1.55;1.45;;;;;;;5.22;54.94;99716.16;4363524;32;33082;-86
2023/01/30 12:14:42;;;;;;;1.12;1.08;;;;;;;5.38;54.39;99714.03;4362955;32;33050;-86
2023/01/30 12:17:22;;;;;;;1.92;0.75;;;;;;;5.62;53.96;99704.72;4374263;32;33133;-85
2023/01/30 12:20:05;;;;;;;0.75;0.75;;;;;;;5.48;54.17;99701.59;4374143;32;33517;-86